sensor_id;sensor_type;location;lat;lon;timestamp;temperature;humidity
54680;DHT22;40578;53.178;5.846;2023-06-26T00:00:31;20.80;99.90
54680;DHT22;40578;53.178;5.846;2023-06-26T00:02:58;20.70;99.90
54680;DHT22;40578;53.178;5.846;2023-06-26T00:05:24;20.70;99.90
54680;DHT22;40578;53.178;5.846;2023-06-26T00:07:50;20.70;99.90
54680;DHT22;40578;53.178;5.846;2023-06-26T00:10:15;20.70;99.90
54680;DHT22;40578;53.178;5.846;2023-06-26T00:12:41;20.60;99.90
54680;DHT22;40578;53.178;5.846;2023-06-26T00:15:07;20.60;99.90
54680;DHT22;40578;53.178;5.846;2023-06-26T00:17:33;20.60;99.90
54680;DHT22;40578;53.178;5.846;2023-06-26T00:20:03;20.50;99.90
54680;DHT22;40578;53.178;5.846;2023-06-26T00:22:30;20.50;99.90
54680;DHT22;40578;53.178;5.846;2023-06-26T00:24:56;20.50;99.90
54680;DHT22;40578;53.178;5.846;2023-06-26T00:27:21;20.40;99.90
54680;DHT22;40578;53.178;5.846;2023-06-26T00:29:47;20.40;99.90
54680;DHT22;40578;53.178;5.846;2023-06-26T00:32:12;20.40;99.90
54680;DHT22;40578;53.178;5.846;2023-06-26T00:34:38;20.40;99.90
54680;DHT22;40578;53.178;5.846;2023-06-26T00:37:04;20.20;99.90
54680;DHT22;40578;53.178;5.846;2023-06-26T00:39:30;20.20;99.90
54680;DHT22;40578;53.178;5.846;2023-06-26T00:41:55;20.10;99.90
54680;DHT22;40578;53.178;5.846;2023-06-26T00:44:21;20.30;99.90
54680;DHT22;40578;53.178;5.846;2023-06-26T00:46:47;20.10;99.90
54680;DHT22;40578;53.178;5.846;2023-06-26T00:49:13;20.10;99.90
54680;DHT22;40578;53.178;5.846;2023-06-26T00:51:39;20.20;99.90
54680;DHT22;40578;53.178;5.846;2023-06-26T00:54:05;20.10;99.90
54680;DHT22;40578;53.178;5.846;2023-06-26T00:56:32;20.20;99.90
54680;DHT22;40578;53.178;5.846;2023-06-26T00:58:58;20.10;99.90
54680;DHT22;40578;53.178;5.846;2023-06-26T01:01:23;20.00;99.90
54680;DHT22;40578;53.178;5.846;2023-06-26T01:03:51;20.00;99.90
54680;DHT22;40578;53.178;5.846;2023-06-26T01:06:20;20.40;99.90
54680;DHT22;40578;53.178;5.846;2023-06-26T01:08:46;19.80;99.90
54680;DHT22;40578;53.178;5.846;2023-06-26T01:11:13;19.90;99.90
54680;DHT22;40578;53.178;5.846;2023-06-26T01:13:40;19.90;99.90
54680;DHT22;40578;53.178;5.846;2023-06-26T01:16:06;19.90;99.90
54680;DHT22;40578;53.178;5.846;2023-06-26T01:18:32;20.00;99.90
54680;DHT22;40578;53.178;5.846;2023-06-26T01:21:00;20.00;99.90
54680;DHT22;40578;53.178;5.846;2023-06-26T01:26:29;20.00;99.90
54680;DHT22;40578;53.178;5.846;2023-06-26T01:28:57;19.90;99.90
54680;DHT22;40578;53.178;5.846;2023-06-26T01:31:24;19.90;99.90
54680;DHT22;40578;53.178;5.846;2023-06-26T01:33:50;20.00;99.90
54680;DHT22;40578;53.178;5.846;2023-06-26T01:36:16;19.90;99.90
54680;DHT22;40578;53.178;5.846;2023-06-26T01:38:42;19.90;99.90
54680;DHT22;40578;53.178;5.846;2023-06-26T01:41:07;19.80;99.90
54680;DHT22;40578;53.178;5.846;2023-06-26T01:46:25;19.80;99.90
54680;DHT22;40578;53.178;5.846;2023-06-26T01:49:09;19.70;99.90
54680;DHT22;40578;53.178;5.846;2023-06-26T01:51:43;19.80;99.90
54680;DHT22;40578;53.178;5.846;2023-06-26T01:54:17;19.90;99.90
54680;DHT22;40578;53.178;5.846;2023-06-26T01:56:44;19.90;99.90
54680;DHT22;40578;53.178;5.846;2023-06-26T01:59:11;19.80;99.90
54680;DHT22;40578;53.178;5.846;2023-06-26T02:01:39;19.80;99.90
54680;DHT22;40578;53.178;5.846;2023-06-26T02:04:05;19.80;99.90
54680;DHT22;40578;53.178;5.846;2023-06-26T02:06:31;19.70;99.90
54680;DHT22;40578;53.178;5.846;2023-06-26T02:08:56;19.80;99.90
54680;DHT22;40578;53.178;5.846;2023-06-26T02:11:22;19.90;99.90
54680;DHT22;40578;53.178;5.846;2023-06-26T02:13:48;19.90;99.90
54680;DHT22;40578;53.178;5.846;2023-06-26T02:16:14;20.00;99.90
54680;DHT22;40578;53.178;5.846;2023-06-26T02:18:39;20.10;99.90
54680;DHT22;40578;53.178;5.846;2023-06-26T02:21:06;20.20;99.90
54680;DHT22;40578;53.178;5.846;2023-06-26T02:23:31;20.20;99.90
54680;DHT22;40578;53.178;5.846;2023-06-26T02:25:57;20.20;99.90
54680;DHT22;40578;53.178;5.846;2023-06-26T02:28:23;20.30;99.90
54680;DHT22;40578;53.178;5.846;2023-06-26T02:30:48;20.40;99.90
54680;DHT22;40578;53.178;5.846;2023-06-26T02:33:14;20.30;99.90
54680;DHT22;40578;53.178;5.846;2023-06-26T02:35:39;20.40;99.90
54680;DHT22;40578;53.178;5.846;2023-06-26T02:38:05;20.40;99.90
54680;DHT22;40578;53.178;5.846;2023-06-26T02:40:31;20.50;99.90
54680;DHT22;40578;53.178;5.846;2023-06-26T02:42:56;20.60;99.90
54680;DHT22;40578;53.178;5.846;2023-06-26T02:45:22;20.60;99.90
54680;DHT22;40578;53.178;5.846;2023-06-26T02:47:47;20.70;99.90
54680;DHT22;40578;53.178;5.846;2023-06-26T02:50:13;20.80;99.90
54680;DHT22;40578;53.178;5.846;2023-06-26T02:52:39;21.10;99.90
54680;DHT22;40578;53.178;5.846;2023-06-26T02:55:05;20.70;99.90
54680;DHT22;40578;53.178;5.846;2023-06-26T02:57:30;20.60;99.90
54680;DHT22;40578;53.178;5.846;2023-06-26T02:59:56;20.60;99.90
54680;DHT22;40578;53.178;5.846;2023-06-26T03:02:22;20.50;99.90
54680;DHT22;40578;53.178;5.846;2023-06-26T03:04:47;20.50;99.90
54680;DHT22;40578;53.178;5.846;2023-06-26T03:07:13;20.30;99.90
54680;DHT22;40578;53.178;5.846;2023-06-26T03:09:38;20.40;99.90
54680;DHT22;40578;53.178;5.846;2023-06-26T03:12:04;20.40;99.90
54680;DHT22;40578;53.178;5.846;2023-06-26T03:14:30;20.30;99.90
54680;DHT22;40578;53.178;5.846;2023-06-26T03:16:57;20.30;99.90
54680;DHT22;40578;53.178;5.846;2023-06-26T03:19:24;20.30;99.90
54680;DHT22;40578;53.178;5.846;2023-06-26T03:21:50;20.20;99.90
54680;DHT22;40578;53.178;5.846;2023-06-26T03:24:16;20.20;99.90
54680;DHT22;40578;53.178;5.846;2023-06-26T03:26:41;20.20;99.90
54680;DHT22;40578;53.178;5.846;2023-06-26T03:29:07;20.20;99.90
54680;DHT22;40578;53.178;5.846;2023-06-26T03:31:32;20.10;99.90
54680;DHT22;40578;53.178;5.846;2023-06-26T03:33:58;20.10;99.90
54680;DHT22;40578;53.178;5.846;2023-06-26T03:36:24;20.10;99.90
54680;DHT22;40578;53.178;5.846;2023-06-26T03:38:49;20.20;99.90
54680;DHT22;40578;53.178;5.846;2023-06-26T03:41:15;20.20;99.90
54680;DHT22;40578;53.178;5.846;2023-06-26T03:43:40;20.10;99.90
54680;DHT22;40578;53.178;5.846;2023-06-26T03:46:06;20.20;99.90
54680;DHT22;40578;53.178;5.846;2023-06-26T03:48:31;20.20;99.90
54680;DHT22;40578;53.178;5.846;2023-06-26T03:50:57;20.10;99.90
54680;DHT22;40578;53.178;5.846;2023-06-26T03:53:23;20.00;99.90
54680;DHT22;40578;53.178;5.846;2023-06-26T03:55:49;19.80;99.90
54680;DHT22;40578;53.178;5.846;2023-06-26T03:58:14;19.80;99.90
54680;DHT22;40578;53.178;5.846;2023-06-26T04:00:40;19.60;99.90
54680;DHT22;40578;53.178;5.846;2023-06-26T04:03:06;19.40;99.90
54680;DHT22;40578;53.178;5.846;2023-06-26T04:05:31;19.40;99.90
54680;DHT22;40578;53.178;5.846;2023-06-26T04:07:57;19.30;99.90
54680;DHT22;40578;53.178;5.846;2023-06-26T04:10:23;19.30;99.90
54680;DHT22;40578;53.178;5.846;2023-06-26T04:12:48;19.40;99.90
54680;DHT22;40578;53.178;5.846;2023-06-26T04:15:14;19.30;99.90
54680;DHT22;40578;53.178;5.846;2023-06-26T04:17:39;19.30;99.90
54680;DHT22;40578;53.178;5.846;2023-06-26T04:20:05;19.20;99.90
54680;DHT22;40578;53.178;5.846;2023-06-26T04:22:32;19.30;99.90
54680;DHT22;40578;53.178;5.846;2023-06-26T04:24:58;19.20;99.90
54680;DHT22;40578;53.178;5.846;2023-06-26T04:27:24;19.20;99.90
54680;DHT22;40578;53.178;5.846;2023-06-26T04:29:49;19.20;99.90
54680;DHT22;40578;53.178;5.846;2023-06-26T04:32:15;19.40;99.90
54680;DHT22;40578;53.178;5.846;2023-06-26T04:34:40;19.20;99.90
54680;DHT22;40578;53.178;5.846;2023-06-26T04:37:09;19.20;99.90
54680;DHT22;40578;53.178;5.846;2023-06-26T04:39:35;19.20;99.90
54680;DHT22;40578;53.178;5.846;2023-06-26T04:42:03;19.20;99.90
54680;DHT22;40578;53.178;5.846;2023-06-26T04:44:28;19.10;99.90
54680;DHT22;40578;53.178;5.846;2023-06-26T04:46:54;19.10;99.90
54680;DHT22;40578;53.178;5.846;2023-06-26T04:49:19;19.10;99.90
54680;DHT22;40578;53.178;5.846;2023-06-26T04:51:45;18.90;99.90
54680;DHT22;40578;53.178;5.846;2023-06-26T04:54:11;18.90;99.90
54680;DHT22;40578;53.178;5.846;2023-06-26T04:56:37;19.00;99.90
54680;DHT22;40578;53.178;5.846;2023-06-26T04:59:05;18.80;99.90
54680;DHT22;40578;53.178;5.846;2023-06-26T05:01:31;19.00;99.90
54680;DHT22;40578;53.178;5.846;2023-06-26T05:03:58;18.80;99.90
54680;DHT22;40578;53.178;5.846;2023-06-26T05:06:23;18.80;99.90
54680;DHT22;40578;53.178;5.846;2023-06-26T05:08:49;18.90;99.90
54680;DHT22;40578;53.178;5.846;2023-06-26T05:11:15;18.80;99.90
54680;DHT22;40578;53.178;5.846;2023-06-26T05:13:41;18.80;99.90
54680;DHT22;40578;53.178;5.846;2023-06-26T05:16:09;18.80;99.90
54680;DHT22;40578;53.178;5.846;2023-06-26T05:18:35;18.90;99.90
54680;DHT22;40578;53.178;5.846;2023-06-26T05:21:01;19.40;99.90
54680;DHT22;40578;53.178;5.846;2023-06-26T05:23:27;19.80;99.90
54680;DHT22;40578;53.178;5.846;2023-06-26T05:25:55;20.40;99.90
54680;DHT22;40578;53.178;5.846;2023-06-26T05:28:22;21.00;99.90
54680;DHT22;40578;53.178;5.846;2023-06-26T05:30:53;20.90;99.90
54680;DHT22;40578;53.178;5.846;2023-06-26T05:33:19;20.70;99.90
54680;DHT22;40578;53.178;5.846;2023-06-26T05:35:48;20.50;99.90
54680;DHT22;40578;53.178;5.846;2023-06-26T05:38:14;20.80;99.90
54680;DHT22;40578;53.178;5.846;2023-06-26T05:40:40;21.30;99.90
54680;DHT22;40578;53.178;5.846;2023-06-26T05:43:06;21.60;99.90
54680;DHT22;40578;53.178;5.846;2023-06-26T05:45:32;21.20;99.90
54680;DHT22;40578;53.178;5.846;2023-06-26T05:47:58;20.80;99.90
54680;DHT22;40578;53.178;5.846;2023-06-26T05:50:24;20.40;99.90
54680;DHT22;40578;53.178;5.846;2023-06-26T05:52:51;20.20;99.90
54680;DHT22;40578;53.178;5.846;2023-06-26T05:55:17;20.10;99.90
54680;DHT22;40578;53.178;5.846;2023-06-26T05:57:43;20.00;99.90
54680;DHT22;40578;53.178;5.846;2023-06-26T06:00:11;20.40;99.90
54680;DHT22;40578;53.178;5.846;2023-06-26T06:02:37;20.40;99.90
54680;DHT22;40578;53.178;5.846;2023-06-26T06:05:03;20.30;99.90
54680;DHT22;40578;53.178;5.846;2023-06-26T06:07:30;20.20;99.90
54680;DHT22;40578;53.178;5.846;2023-06-26T06:09:56;20.00;99.90
54680;DHT22;40578;53.178;5.846;2023-06-26T06:12:21;19.90;99.90
54680;DHT22;40578;53.178;5.846;2023-06-26T06:14:47;19.90;99.90
54680;DHT22;40578;53.178;5.846;2023-06-26T06:17:12;20.10;99.90
54680;DHT22;40578;53.178;5.846;2023-06-26T06:19:38;19.90;99.90
54680;DHT22;40578;53.178;5.846;2023-06-26T06:22:04;20.40;99.90
54680;DHT22;40578;53.178;5.846;2023-06-26T06:24:29;21.20;99.90
54680;DHT22;40578;53.178;5.846;2023-06-26T06:26:55;21.40;99.90
54680;DHT22;40578;53.178;5.846;2023-06-26T06:29:20;21.10;99.90
54680;DHT22;40578;53.178;5.846;2023-06-26T06:31:46;20.70;99.90
54680;DHT22;40578;53.178;5.846;2023-06-26T06:34:12;20.60;99.90
54680;DHT22;40578;53.178;5.846;2023-06-26T06:36:38;20.40;99.90
54680;DHT22;40578;53.178;5.846;2023-06-26T06:39:03;20.20;99.90
54680;DHT22;40578;53.178;5.846;2023-06-26T06:41:29;20.00;99.90
54680;DHT22;40578;53.178;5.846;2023-06-26T06:43:55;20.00;99.90
54680;DHT22;40578;53.178;5.846;2023-06-26T06:46:20;19.90;99.90
54680;DHT22;40578;53.178;5.846;2023-06-26T06:48:46;19.90;99.90
54680;DHT22;40578;53.178;5.846;2023-06-26T06:51:12;19.80;99.90
54680;DHT22;40578;53.178;5.846;2023-06-26T06:53:38;19.90;99.90
54680;DHT22;40578;53.178;5.846;2023-06-26T06:56:04;19.90;99.90
54680;DHT22;40578;53.178;5.846;2023-06-26T06:58:29;19.90;99.90
54680;DHT22;40578;53.178;5.846;2023-06-26T07:00:59;19.90;99.90
54680;DHT22;40578;53.178;5.846;2023-06-26T07:03:25;20.00;99.90
54680;DHT22;40578;53.178;5.846;2023-06-26T07:05:50;19.90;99.90
54680;DHT22;40578;53.178;5.846;2023-06-26T07:08:16;20.00;99.90
54680;DHT22;40578;53.178;5.846;2023-06-26T07:10:41;20.00;99.90
54680;DHT22;40578;53.178;5.846;2023-06-26T07:13:07;20.10;99.90
54680;DHT22;40578;53.178;5.846;2023-06-26T07:15:33;20.00;99.90
54680;DHT22;40578;53.178;5.846;2023-06-26T07:17:58;20.00;99.90
54680;DHT22;40578;53.178;5.846;2023-06-26T07:20:24;19.90;99.90
54680;DHT22;40578;53.178;5.846;2023-06-26T07:22:50;19.90;99.90
54680;DHT22;40578;53.178;5.846;2023-06-26T07:25:15;19.90;99.90
54680;DHT22;40578;53.178;5.846;2023-06-26T07:27:41;20.10;99.90
54680;DHT22;40578;53.178;5.846;2023-06-26T07:30:08;20.20;99.90
54680;DHT22;40578;53.178;5.846;2023-06-26T07:32:37;20.20;99.90
54680;DHT22;40578;53.178;5.846;2023-06-26T07:35:03;20.10;99.90
54680;DHT22;40578;53.178;5.846;2023-06-26T07:37:29;20.20;99.90
54680;DHT22;40578;53.178;5.846;2023-06-26T07:39:54;20.10;99.90
54680;DHT22;40578;53.178;5.846;2023-06-26T07:42:20;20.10;99.90
54680;DHT22;40578;53.178;5.846;2023-06-26T07:44:46;20.10;99.90
54680;DHT22;40578;53.178;5.846;2023-06-26T07:47:11;20.00;99.90
54680;DHT22;40578;53.178;5.846;2023-06-26T07:49:37;20.00;99.90
54680;DHT22;40578;53.178;5.846;2023-06-26T07:52:04;20.10;99.90
54680;DHT22;40578;53.178;5.846;2023-06-26T07:54:30;20.00;99.90
54680;DHT22;40578;53.178;5.846;2023-06-26T07:57:03;20.00;99.90
54680;DHT22;40578;53.178;5.846;2023-06-26T07:59:30;20.10;99.90
54680;DHT22;40578;53.178;5.846;2023-06-26T08:01:56;20.20;99.90
54680;DHT22;40578;53.178;5.846;2023-06-26T08:04:24;20.10;99.90
54680;DHT22;40578;53.178;5.846;2023-06-26T08:06:54;20.00;99.90
54680;DHT22;40578;53.178;5.846;2023-06-26T08:09:21;20.00;99.90
54680;DHT22;40578;53.178;5.846;2023-06-26T08:11:47;20.10;99.90
54680;DHT22;40578;53.178;5.846;2023-06-26T08:14:12;20.10;99.90
54680;DHT22;40578;53.178;5.846;2023-06-26T08:16:39;20.20;99.90
54680;DHT22;40578;53.178;5.846;2023-06-26T08:19:05;20.20;99.90
54680;DHT22;40578;53.178;5.846;2023-06-26T08:21:30;20.10;99.90
54680;DHT22;40578;53.178;5.846;2023-06-26T08:23:56;20.20;99.90
54680;DHT22;40578;53.178;5.846;2023-06-26T08:26:22;20.20;99.90
54680;DHT22;40578;53.178;5.846;2023-06-26T08:28:47;20.10;99.90
54680;DHT22;40578;53.178;5.846;2023-06-26T08:31:13;20.10;99.90
54680;DHT22;40578;53.178;5.846;2023-06-26T08:33:38;20.10;99.90
54680;DHT22;40578;53.178;5.846;2023-06-26T08:36:04;20.10;99.90
54680;DHT22;40578;53.178;5.846;2023-06-26T08:38:30;20.00;99.90
54680;DHT22;40578;53.178;5.846;2023-06-26T08:40:55;20.00;99.90
54680;DHT22;40578;53.178;5.846;2023-06-26T08:43:21;20.00;99.90
54680;DHT22;40578;53.178;5.846;2023-06-26T08:45:47;20.00;99.90
54680;DHT22;40578;53.178;5.846;2023-06-26T08:48:17;20.10;99.90
54680;DHT22;40578;53.178;5.846;2023-06-26T08:50:43;20.10;99.90
54680;DHT22;40578;53.178;5.846;2023-06-26T08:53:38;20.10;99.90
54680;DHT22;40578;53.178;5.846;2023-06-26T08:56:07;20.20;99.90
54680;DHT22;40578;53.178;5.846;2023-06-26T08:58:35;20.00;99.90
54680;DHT22;40578;53.178;5.846;2023-06-26T09:01:02;20.10;99.90
54680;DHT22;40578;53.178;5.846;2023-06-26T09:03:29;20.10;99.90
54680;DHT22;40578;53.178;5.846;2023-06-26T09:05:56;20.10;99.90
54680;DHT22;40578;53.178;5.846;2023-06-26T09:08:21;20.00;99.90
54680;DHT22;40578;53.178;5.846;2023-06-26T09:10:47;20.10;99.90
54680;DHT22;40578;53.178;5.846;2023-06-26T09:13:13;20.70;99.90
54680;DHT22;40578;53.178;5.846;2023-06-26T09:15:42;20.40;99.90
54680;DHT22;40578;53.178;5.846;2023-06-26T09:18:08;20.40;99.90
54680;DHT22;40578;53.178;5.846;2023-06-26T09:20:33;20.50;99.90
54680;DHT22;40578;53.178;5.846;2023-06-26T09:23:00;20.70;99.90
54680;DHT22;40578;53.178;5.846;2023-06-26T09:25:26;20.50;99.90
54680;DHT22;40578;53.178;5.846;2023-06-26T09:27:52;20.50;99.90
54680;DHT22;40578;53.178;5.846;2023-06-26T09:30:18;20.40;99.90
54680;DHT22;40578;53.178;5.846;2023-06-26T09:32:44;20.40;99.90
54680;DHT22;40578;53.178;5.846;2023-06-26T09:35:10;20.50;99.90
54680;DHT22;40578;53.178;5.846;2023-06-26T09:37:36;20.60;99.90
54680;DHT22;40578;53.178;5.846;2023-06-26T09:40:02;20.60;99.90
54680;DHT22;40578;53.178;5.846;2023-06-26T09:42:29;20.70;99.90
54680;DHT22;40578;53.178;5.846;2023-06-26T09:44:54;20.70;99.90
54680;DHT22;40578;53.178;5.846;2023-06-26T09:47:21;20.80;99.90
54680;DHT22;40578;53.178;5.846;2023-06-26T09:49:47;20.60;99.90
54680;DHT22;40578;53.178;5.846;2023-06-26T09:52:16;20.50;99.90
54680;DHT22;40578;53.178;5.846;2023-06-26T09:54:45;20.50;99.90
54680;DHT22;40578;53.178;5.846;2023-06-26T09:57:18;20.50;99.90
54680;DHT22;40578;53.178;5.846;2023-06-26T09:59:44;20.50;99.90
54680;DHT22;40578;53.178;5.846;2023-06-26T10:02:13;20.50;99.90
54680;DHT22;40578;53.178;5.846;2023-06-26T10:04:39;20.40;99.90
54680;DHT22;40578;53.178;5.846;2023-06-26T10:07:12;20.40;99.90
54680;DHT22;40578;53.178;5.846;2023-06-26T10:09:41;20.40;99.90
54680;DHT22;40578;53.178;5.846;2023-06-26T10:12:26;20.50;99.90
54680;DHT22;40578;53.178;5.846;2023-06-26T10:14:53;20.50;99.90
54680;DHT22;40578;53.178;5.846;2023-06-26T10:17:19;20.50;99.90
54680;DHT22;40578;53.178;5.846;2023-06-26T10:19:49;20.60;99.90
54680;DHT22;40578;53.178;5.846;2023-06-26T10:22:18;20.60;99.90
54680;DHT22;40578;53.178;5.846;2023-06-26T10:24:47;20.70;99.90
54680;DHT22;40578;53.178;5.846;2023-06-26T10:27:19;20.70;99.90
54680;DHT22;40578;53.178;5.846;2023-06-26T10:29:51;20.70;99.90
54680;DHT22;40578;53.178;5.846;2023-06-26T10:32:18;20.70;99.90
54680;DHT22;40578;53.178;5.846;2023-06-26T10:34:45;20.70;99.90
54680;DHT22;40578;53.178;5.846;2023-06-26T10:37:12;20.80;99.90
54680;DHT22;40578;53.178;5.846;2023-06-26T10:39:47;20.90;99.90
54680;DHT22;40578;53.178;5.846;2023-06-26T10:42:15;20.60;99.90
54680;DHT22;40578;53.178;5.846;2023-06-26T10:44:44;20.90;99.90
54680;DHT22;40578;53.178;5.846;2023-06-26T10:47:11;20.60;99.90
54680;DHT22;40578;53.178;5.846;2023-06-26T10:49:38;20.70;99.90
54680;DHT22;40578;53.178;5.846;2023-06-26T10:52:08;20.70;99.90
54680;DHT22;40578;53.178;5.846;2023-06-26T10:54:34;21.00;99.90
54680;DHT22;40578;53.178;5.846;2023-06-26T10:57:01;20.90;99.90
54680;DHT22;40578;53.178;5.846;2023-06-26T10:59:28;20.90;99.90
54680;DHT22;40578;53.178;5.846;2023-06-26T11:01:55;20.80;99.90
54680;DHT22;40578;53.178;5.846;2023-06-26T11:04:37;20.90;99.90
54680;DHT22;40578;53.178;5.846;2023-06-26T11:07:24;20.90;99.90
54680;DHT22;40578;53.178;5.846;2023-06-26T11:10:01;20.90;99.90
54680;DHT22;40578;53.178;5.846;2023-06-26T11:12:40;21.00;99.90
54680;DHT22;40578;53.178;5.846;2023-06-26T11:15:10;20.80;99.90
54680;DHT22;40578;53.178;5.846;2023-06-26T11:17:37;21.00;99.90
54680;DHT22;40578;53.178;5.846;2023-06-26T11:20:05;21.00;99.90
54680;DHT22;40578;53.178;5.846;2023-06-26T11:22:34;21.20;99.90
54680;DHT22;40578;53.178;5.846;2023-06-26T11:25:01;21.10;99.90
54680;DHT22;40578;53.178;5.846;2023-06-26T11:27:43;21.10;99.90
54680;DHT22;40578;53.178;5.846;2023-06-26T11:30:23;21.20;99.90
54680;DHT22;40578;53.178;5.846;2023-06-26T11:32:49;21.20;99.90
54680;DHT22;40578;53.178;5.846;2023-06-26T11:35:25;21.20;99.90
54680;DHT22;40578;53.178;5.846;2023-06-26T11:38:01;21.20;99.90
54680;DHT22;40578;53.178;5.846;2023-06-26T11:40:31;21.20;99.90
54680;DHT22;40578;53.178;5.846;2023-06-26T11:42:59;20.90;99.90
54680;DHT22;40578;53.178;5.846;2023-06-26T11:45:27;20.80;99.90
54680;DHT22;40578;53.178;5.846;2023-06-26T11:47:55;20.70;99.90
54680;DHT22;40578;53.178;5.846;2023-06-26T11:50:22;20.60;99.90
54680;DHT22;40578;53.178;5.846;2023-06-26T11:52:58;20.40;99.90
54680;DHT22;40578;53.178;5.846;2023-06-26T11:55:25;20.50;99.90
54680;DHT22;40578;53.178;5.846;2023-06-26T11:57:55;20.50;99.90
54680;DHT22;40578;53.178;5.846;2023-06-26T12:00:21;20.40;99.90
54680;DHT22;40578;53.178;5.846;2023-06-26T12:02:47;20.60;99.90
54680;DHT22;40578;53.178;5.846;2023-06-26T12:05:16;20.70;99.90
54680;DHT22;40578;53.178;5.846;2023-06-26T12:07:43;20.70;99.90
54680;DHT22;40578;53.178;5.846;2023-06-26T12:10:12;21.00;99.90
54680;DHT22;40578;53.178;5.846;2023-06-26T12:12:39;21.10;99.90
54680;DHT22;40578;53.178;5.846;2023-06-26T12:15:06;21.00;99.90
54680;DHT22;40578;53.178;5.846;2023-06-26T12:17:31;21.10;99.90
54680;DHT22;40578;53.178;5.846;2023-06-26T12:19:57;21.10;99.90
54680;DHT22;40578;53.178;5.846;2023-06-26T12:22:23;21.30;99.90
54680;DHT22;40578;53.178;5.846;2023-06-26T12:24:49;21.60;99.90
54680;DHT22;40578;53.178;5.846;2023-06-26T12:27:17;21.60;99.90
54680;DHT22;40578;53.178;5.846;2023-06-26T12:29:53;21.60;99.90
54680;DHT22;40578;53.178;5.846;2023-06-26T12:32:19;21.50;99.90
54680;DHT22;40578;53.178;5.846;2023-06-26T12:34:49;21.30;99.90
54680;DHT22;40578;53.178;5.846;2023-06-26T12:37:15;21.10;99.90
54680;DHT22;40578;53.178;5.846;2023-06-26T12:39:48;20.90;99.90
54680;DHT22;40578;53.178;5.846;2023-06-26T12:42:19;21.00;99.90
54680;DHT22;40578;53.178;5.846;2023-06-26T12:44:46;20.80;99.90
54680;DHT22;40578;53.178;5.846;2023-06-26T12:47:12;20.90;99.90
54680;DHT22;40578;53.178;5.846;2023-06-26T12:49:40;20.90;99.90
54680;DHT22;40578;53.178;5.846;2023-06-26T12:52:09;21.00;99.90
54680;DHT22;40578;53.178;5.846;2023-06-26T12:54:36;21.00;99.90
54680;DHT22;40578;53.178;5.846;2023-06-26T12:57:02;21.10;99.90
54680;DHT22;40578;53.178;5.846;2023-06-26T12:59:30;21.10;99.90
54680;DHT22;40578;53.178;5.846;2023-06-26T13:01:56;21.10;99.90
54680;DHT22;40578;53.178;5.846;2023-06-26T13:04:22;21.50;99.90
54680;DHT22;40578;53.178;5.846;2023-06-26T13:06:48;21.30;99.90
54680;DHT22;40578;53.178;5.846;2023-06-26T13:09:13;21.40;99.90
54680;DHT22;40578;53.178;5.846;2023-06-26T13:11:39;21.30;99.90
54680;DHT22;40578;53.178;5.846;2023-06-26T13:14:05;21.30;99.90
54680;DHT22;40578;53.178;5.846;2023-06-26T13:16:30;21.40;99.90
54680;DHT22;40578;53.178;5.846;2023-06-26T13:18:58;21.60;99.90
54680;DHT22;40578;53.178;5.846;2023-06-26T13:21:24;21.60;99.90
54680;DHT22;40578;53.178;5.846;2023-06-26T13:23:49;21.60;99.90
54680;DHT22;40578;53.178;5.846;2023-06-26T13:26:15;21.60;99.90
54680;DHT22;40578;53.178;5.846;2023-06-26T13:28:41;21.50;99.90
54680;DHT22;40578;53.178;5.846;2023-06-26T13:31:06;21.80;99.90
54680;DHT22;40578;53.178;5.846;2023-06-26T13:33:32;21.90;99.90
54680;DHT22;40578;53.178;5.846;2023-06-26T13:35:58;21.70;99.90
54680;DHT22;40578;53.178;5.846;2023-06-26T13:38:24;21.50;99.90
54680;DHT22;40578;53.178;5.846;2023-06-26T13:40:54;21.10;99.90
54680;DHT22;40578;53.178;5.846;2023-06-26T13:43:22;21.00;99.90
54680;DHT22;40578;53.178;5.846;2023-06-26T13:45:49;21.10;99.90
54680;DHT22;40578;53.178;5.846;2023-06-26T13:48:14;20.90;99.90
54680;DHT22;40578;53.178;5.846;2023-06-26T13:50:40;21.00;99.90
54680;DHT22;40578;53.178;5.846;2023-06-26T13:53:05;21.30;99.90
54680;DHT22;40578;53.178;5.846;2023-06-26T13:55:32;21.40;99.90
54680;DHT22;40578;53.178;5.846;2023-06-26T13:57:58;21.30;99.90
54680;DHT22;40578;53.178;5.846;2023-06-26T14:00:24;21.40;99.90
54680;DHT22;40578;53.178;5.846;2023-06-26T14:02:51;21.40;99.90
54680;DHT22;40578;53.178;5.846;2023-06-26T14:05:16;21.30;99.90
54680;DHT22;40578;53.178;5.846;2023-06-26T14:07:44;21.40;99.90
54680;DHT22;40578;53.178;5.846;2023-06-26T14:10:09;21.50;99.90
54680;DHT22;40578;53.178;5.846;2023-06-26T14:12:35;21.60;99.90
54680;DHT22;40578;53.178;5.846;2023-06-26T14:15:01;21.70;99.90
54680;DHT22;40578;53.178;5.846;2023-06-26T14:17:26;21.60;99.90
54680;DHT22;40578;53.178;5.846;2023-06-26T14:19:53;21.80;99.90
54680;DHT22;40578;53.178;5.846;2023-06-26T14:22:18;22.10;99.90
54680;DHT22;40578;53.178;5.846;2023-06-26T14:24:44;22.00;99.90
54680;DHT22;40578;53.178;5.846;2023-06-26T14:27:10;22.20;99.90
54680;DHT22;40578;53.178;5.846;2023-06-26T14:29:36;22.00;99.90
54680;DHT22;40578;53.178;5.846;2023-06-26T14:32:02;21.90;99.90
54680;DHT22;40578;53.178;5.846;2023-06-26T14:34:28;21.70;99.90
54680;DHT22;40578;53.178;5.846;2023-06-26T14:36:54;21.60;99.90
54680;DHT22;40578;53.178;5.846;2023-06-26T14:39:19;21.70;99.90
54680;DHT22;40578;53.178;5.846;2023-06-26T14:41:45;22.00;99.90
54680;DHT22;40578;53.178;5.846;2023-06-26T14:44:12;22.20;99.90
54680;DHT22;40578;53.178;5.846;2023-06-26T14:46:38;22.10;99.90
54680;DHT22;40578;53.178;5.846;2023-06-26T14:49:04;22.00;99.90
54680;DHT22;40578;53.178;5.846;2023-06-26T14:51:29;22.10;99.90
54680;DHT22;40578;53.178;5.846;2023-06-26T14:53:55;22.30;99.90
54680;DHT22;40578;53.178;5.846;2023-06-26T14:56:21;22.20;99.90
54680;DHT22;40578;53.178;5.846;2023-06-26T14:58:46;22.30;99.90
54680;DHT22;40578;53.178;5.846;2023-06-26T15:01:12;22.30;99.90
54680;DHT22;40578;53.178;5.846;2023-06-26T15:03:41;22.20;99.90
54680;DHT22;40578;53.178;5.846;2023-06-26T15:06:06;22.20;99.90
54680;DHT22;40578;53.178;5.846;2023-06-26T15:08:32;22.10;99.90
54680;DHT22;40578;53.178;5.846;2023-06-26T15:10:58;22.00;99.90
54680;DHT22;40578;53.178;5.846;2023-06-26T15:13:23;21.90;99.90
54680;DHT22;40578;53.178;5.846;2023-06-26T15:15:49;22.00;99.90
54680;DHT22;40578;53.178;5.846;2023-06-26T15:18:15;22.10;99.90
54680;DHT22;40578;53.178;5.846;2023-06-26T15:20:40;22.10;99.90
54680;DHT22;40578;53.178;5.846;2023-06-26T15:23:06;22.30;99.90
54680;DHT22;40578;53.178;5.846;2023-06-26T15:25:31;22.00;99.90
54680;DHT22;40578;53.178;5.846;2023-06-26T15:28:00;22.00;99.90
54680;DHT22;40578;53.178;5.846;2023-06-26T15:30:26;21.90;99.90
54680;DHT22;40578;53.178;5.846;2023-06-26T15:32:51;21.70;99.90